createdAt,value
2022-08-24T00:01:07.694Z,99.90
2022-08-24T00:03:37.982Z,99.90
2022-08-24T00:06:09.147Z,99.90
2022-08-24T00:08:39.273Z,99.90
2022-08-24T00:11:10.416Z,99.90
2022-08-24T00:13:39.769Z,99.90
2022-08-24T00:16:10.126Z,99.90
2022-08-24T00:18:39.614Z,99.90
2022-08-24T00:21:09.425Z,99.90
2022-08-24T00:23:38.460Z,99.90
2022-08-24T00:26:09.640Z,99.90
2022-08-24T00:28:38.785Z,99.90
2022-08-24T00:31:08.777Z,99.90
2022-08-24T00:33:37.874Z,99.90
2022-08-24T00:36:08.362Z,99.90
2022-08-24T00:38:38.079Z,99.90
2022-08-24T00:41:09.013Z,99.90
2022-08-24T00:43:38.342Z,99.90
2022-08-24T00:46:16.002Z,99.90
2022-08-24T00:48:53.321Z,99.90
2022-08-24T00:51:27.702Z,99.90
2022-08-24T00:54:18.591Z,99.90
2022-08-24T00:56:53.354Z,99.90
2022-08-24T00:59:29.219Z,99.90
2022-08-24T01:02:15.319Z,99.90
2022-08-24T01:04:51.084Z,99.90
2022-08-24T01:07:21.056Z,99.90
2022-08-24T01:09:50.348Z,99.90
2022-08-24T01:12:20.998Z,99.90
2022-08-24T01:14:50.655Z,99.90
2022-08-24T01:17:38.895Z,99.90
2022-08-24T01:20:11.712Z,99.90
2022-08-24T01:22:53.791Z,99.90
2022-08-24T01:25:26.618Z,99.90
2022-08-24T01:28:17.483Z,99.90
2022-08-24T01:30:54.658Z,99.90
2022-08-24T01:33:29.572Z,99.90
2022-08-24T01:36:02.525Z,99.90
2022-08-24T01:38:32.789Z,99.90
2022-08-24T01:41:05.613Z,99.90
2022-08-24T01:43:37.016Z,99.90
2022-08-24T01:46:09.384Z,99.90
2022-08-24T01:48:38.768Z,99.90
2022-08-24T01:51:08.125Z,99.90
2022-08-24T01:53:37.719Z,99.90
2022-08-24T01:56:09.123Z,99.90
2022-08-24T01:58:38.237Z,99.90
2022-08-24T02:01:07.619Z,99.90
2022-08-24T02:03:36.678Z,99.90
2022-08-24T02:06:05.856Z,99.90
2022-08-24T02:08:36.460Z,99.90
2022-08-24T02:11:08.839Z,99.90
2022-08-24T02:13:38.497Z,99.90
2022-08-24T02:16:08.142Z,99.90
2022-08-24T02:18:39.487Z,99.90
2022-08-24T02:21:09.191Z,99.90
2022-08-24T02:23:38.658Z,99.90
2022-08-24T02:26:11.032Z,99.90
2022-08-24T02:28:59.383Z,99.90
2022-08-24T02:31:34.308Z,99.90
2022-08-24T02:34:03.615Z,99.90
2022-08-24T02:36:32.730Z,99.90
2022-08-24T02:39:02.839Z,99.90
2022-08-24T02:41:34.834Z,99.90
2022-08-24T02:44:04.602Z,99.90
2022-08-24T02:46:35.780Z,99.90
2022-08-24T02:49:11.871Z,99.90
2022-08-24T02:51:47.081Z,99.90
2022-08-24T02:54:21.397Z,99.90
2022-08-24T02:57:10.185Z,99.90
2022-08-24T02:59:40.031Z,99.90
2022-08-24T03:02:09.241Z,99.90
2022-08-24T03:04:38.213Z,99.90
2022-08-24T03:07:07.497Z,99.90
2022-08-24T03:09:36.428Z,99.90
2022-08-24T03:12:06.251Z,99.90
2022-08-24T03:14:37.379Z,99.90
2022-08-24T03:17:07.001Z,99.90
2022-08-24T03:19:35.971Z,99.90
2022-08-24T03:22:05.168Z,99.90
2022-08-24T03:24:34.202Z,99.90
2022-08-24T03:27:04.557Z,99.90
2022-08-24T03:29:35.327Z,99.90
2022-08-24T03:32:08.569Z,99.90
2022-08-24T03:34:38.148Z,99.90
2022-08-24T03:37:08.612Z,99.90
2022-08-24T03:39:37.664Z,99.90
2022-08-24T03:42:07.633Z,99.90
2022-08-24T03:44:37.411Z,99.90
2022-08-24T03:47:08.690Z,99.90
2022-08-24T03:49:38.373Z,99.90
2022-08-24T03:52:07.747Z,99.90
2022-08-24T03:54:36.740Z,99.90
2022-08-24T03:57:06.179Z,99.90
2022-08-24T03:59:37.731Z,99.90
2022-08-24T04:02:17.318Z,99.90
2022-08-24T04:04:46.525Z,99.90
2022-08-24T04:07:16.740Z,99.90
2022-08-24T04:09:45.750Z,99.90
2022-08-24T04:12:14.768Z,99.90
2022-08-24T04:14:44.669Z,99.90
2022-08-24T04:17:19.173Z,99.90
2022-08-24T04:19:58.853Z,99.90
2022-08-24T04:22:37.880Z,99.90
2022-08-24T04:25:09.623Z,99.90
2022-08-24T04:27:41.358Z,99.90
2022-08-24T04:30:14.389Z,99.90
2022-08-24T04:33:11.834Z,99.90
2022-08-24T04:35:42.920Z,99.90
2022-08-24T04:38:12.909Z,99.90
2022-08-24T04:40:49.284Z,99.90
2022-08-24T04:43:20.089Z,99.90
2022-08-24T04:45:51.235Z,99.90
2022-08-24T04:48:23.752Z,99.90
2022-08-24T04:50:54.069Z,99.90
2022-08-24T04:53:23.420Z,99.90
2022-08-24T04:55:53.492Z,99.90
2022-08-24T04:58:22.593Z,99.90
2022-08-24T05:00:51.567Z,99.90
2022-08-24T05:03:20.748Z,99.90
2022-08-24T05:05:53.149Z,99.90
2022-08-24T05:08:41.249Z,99.90
2022-08-24T05:11:10.775Z,99.90
2022-08-24T05:13:40.214Z,99.90
2022-08-24T05:16:11.917Z,99.90
2022-08-24T05:18:42.175Z,99.90
2022-08-24T05:21:18.011Z,99.90
2022-08-24T05:23:48.694Z,99.90
2022-08-24T05:26:19.828Z,99.90
2022-08-24T05:28:49.201Z,99.90
2022-08-24T05:31:19.907Z,99.90
2022-08-24T05:33:49.827Z,99.90
2022-08-24T05:36:23.420Z,99.90
2022-08-24T05:38:54.931Z,99.90
2022-08-24T05:41:24.074Z,99.90
2022-08-24T05:44:00.570Z,99.90
2022-08-24T05:46:31.913Z,99.90
2022-08-24T05:49:01.757Z,99.90
2022-08-24T05:51:36.989Z,99.90
2022-08-24T05:54:09.541Z,99.90
2022-08-24T05:56:52.881Z,99.90
2022-08-24T05:59:22.888Z,99.90
2022-08-24T06:01:51.942Z,99.90
2022-08-24T06:04:21.230Z,99.90
2022-08-24T06:06:52.517Z,99.90
2022-08-24T06:09:21.730Z,99.90
2022-08-24T06:11:51.317Z,99.90
2022-08-24T06:14:22.842Z,99.90
2022-08-24T06:16:58.952Z,99.90
2022-08-24T06:19:27.953Z,99.90
2022-08-24T06:21:58.907Z,99.90
2022-08-24T06:24:43.980Z,99.60
2022-08-24T06:27:26.358Z,99.30
2022-08-24T06:29:58.993Z,99.10
2022-08-24T06:32:53.894Z,98.80
2022-08-24T06:35:28.661Z,98.60
2022-08-24T06:38:00.450Z,98.20
2022-08-24T06:40:29.487Z,98.00
2022-08-24T06:43:02.647Z,97.60
2022-08-24T06:45:43.876Z,97.30
2022-08-24T06:48:15.766Z,97.00
2022-08-24T06:50:45.741Z,96.90
2022-08-24T06:53:15.967Z,96.60
2022-08-24T06:55:48.650Z,96.40
2022-08-24T06:58:18.026Z,96.10
2022-08-24T07:00:52.659Z,95.70
2022-08-24T07:03:23.396Z,95.30
2022-08-24T07:05:59.759Z,94.90
2022-08-24T07:08:46.106Z,94.60
2022-08-24T07:11:17.889Z,94.30
2022-08-24T07:13:46.782Z,94.00
2022-08-24T07:16:16.486Z,93.80
2022-08-24T07:18:50.172Z,93.50
2022-08-24T07:21:21.556Z,93.50
2022-08-24T07:23:56.508Z,92.80
2022-08-24T07:26:27.277Z,92.60
2022-08-24T07:29:01.434Z,92.20
2022-08-24T07:31:35.566Z,92.10
2022-08-24T07:34:21.996Z,91.90
2022-08-24T07:36:52.564Z,91.60
2022-08-24T07:39:22.920Z,91.30
2022-08-24T07:42:11.548Z,91.00
2022-08-24T07:44:43.747Z,90.80
2022-08-24T07:47:37.067Z,90.50
2022-08-24T07:50:03.705Z,90.50
2022-08-24T07:52:32.515Z,90.40
2022-08-24T07:55:02.830Z,90.20
2022-08-24T07:57:31.956Z,90.00
2022-08-24T08:00:01.134Z,89.30
2022-08-24T08:02:35.028Z,88.50
2022-08-24T08:05:05.806Z,87.60
2022-08-24T08:07:34.455Z,86.50
2022-08-24T08:10:05.173Z,86.00
2022-08-24T08:12:35.482Z,84.60
2022-08-24T08:15:04.317Z,83.60
2022-08-24T08:17:33.611Z,82.30
2022-08-24T08:20:02.422Z,81.60
2022-08-24T08:22:48.314Z,80.90
2022-08-24T08:25:54.793Z,80.40
2022-08-24T08:28:46.490Z,80.50
2022-08-24T08:31:34.339Z,79.50
2022-08-24T08:34:05.654Z,78.80
2022-08-24T08:36:35.241Z,77.50
2022-08-24T08:39:05.340Z,75.90
2022-08-24T08:41:58.862Z,75.50
2022-08-24T08:44:44.007Z,75.00
2022-08-24T08:47:25.550Z,74.70
2022-08-24T08:50:20.239Z,73.80
2022-08-24T08:53:19.185Z,73.70
2022-08-24T08:55:59.422Z,73.90
2022-08-24T08:58:57.333Z,73.00
2022-08-24T09:01:46.812Z,71.80
2022-08-24T09:04:47.953Z,71.00
2022-08-24T09:07:24.312Z,71.00
2022-08-24T09:10:12.870Z,71.20
2022-08-24T09:12:52.490Z,71.50
2022-08-24T09:15:37.052Z,71.90
2022-08-24T09:18:14.215Z,72.30
2022-08-24T09:20:51.556Z,72.10
2022-08-24T09:23:24.056Z,72.70
2022-08-24T09:25:59.529Z,72.90
2022-08-24T09:28:49.409Z,73.40
2022-08-24T09:31:28.432Z,73.10
2022-08-24T09:34:07.561Z,73.50
2022-08-24T09:36:41.864Z,72.90
2022-08-24T09:39:15.499Z,72.70
2022-08-24T09:42:05.394Z,72.30
2022-08-24T09:44:45.796Z,72.10
2022-08-24T09:47:23.759Z,71.20
2022-08-24T09:50:04.318Z,70.60
2022-08-24T09:52:51.028Z,69.70
2022-08-24T09:56:12.152Z,69.10
2022-08-24T09:58:46.517Z,68.70
2022-08-24T10:01:18.155Z,67.90
2022-08-24T10:03:52.577Z,67.10
2022-08-24T10:06:31.497Z,66.40
2022-08-24T10:09:19.298Z,65.60
2022-08-24T10:11:56.210Z,64.30
2022-08-24T10:14:45.520Z,64.00
2022-08-24T10:17:19.623Z,63.40
2022-08-24T10:19:56.318Z,62.40
2022-08-24T10:22:54.020Z,62.60
2022-08-24T10:25:28.724Z,61.80
2022-08-24T10:28:02.414Z,61.20
2022-08-24T10:30:59.658Z,60.70
2022-08-24T10:33:29.777Z,60.10
2022-08-24T10:36:25.624Z,59.50
2022-08-24T10:39:16.077Z,58.70
2022-08-24T10:41:58.106Z,58.10
2022-08-24T10:44:38.173Z,57.70
2022-08-24T10:47:13.425Z,57.50
2022-08-24T10:50:03.213Z,57.50
2022-08-24T10:52:44.685Z,57.00
2022-08-24T10:55:34.769Z,56.50
2022-08-24T10:58:11.909Z,56.40
2022-08-24T11:00:40.846Z,56.80
2022-08-24T11:03:11.254Z,57.00
2022-08-24T11:05:42.630Z,57.40
2022-08-24T11:08:14.377Z,57.60
2022-08-24T11:10:44.536Z,57.70
2022-08-24T11:13:21.638Z,57.80
2022-08-24T11:15:52.032Z,57.00
2022-08-24T11:18:21.082Z,57.30
2022-08-24T11:20:50.461Z,57.20
2022-08-24T11:23:21.625Z,57.00
2022-08-24T11:25:59.501Z,57.90
2022-08-24T11:28:32.051Z,57.90
2022-08-24T11:31:00.904Z,58.70
2022-08-24T11:33:31.698Z,59.40
2022-08-24T11:36:01.825Z,60.00
2022-08-24T11:38:32.287Z,60.80
2022-08-24T11:41:07.161Z,61.50
2022-08-24T11:43:40.884Z,62.40
2022-08-24T11:46:15.890Z,63.50
2022-08-24T11:48:55.878Z,64.70
2022-08-24T11:51:31.403Z,65.70
2022-08-24T11:54:02.459Z,66.50
2022-08-24T11:56:38.343Z,67.40
2022-08-24T11:59:17.516Z,68.30
2022-08-24T12:01:52.126Z,69.10
2022-08-24T12:04:38.579Z,69.60
2022-08-24T12:07:11.679Z,70.40
2022-08-24T12:09:46.179Z,71.20
2022-08-24T12:12:21.197Z,71.80
2022-08-24T12:14:52.941Z,72.50
2022-08-24T12:17:27.791Z,73.00
2022-08-24T12:19:57.991Z,73.50
2022-08-24T12:22:27.597Z,74.10
2022-08-24T12:24:57.366Z,74.70
2022-08-24T12:27:30.796Z,75.10
2022-08-24T12:30:01.555Z,75.40
2022-08-24T12:32:39.163Z,75.70
2022-08-24T12:35:10.653Z,76.00
2022-08-24T12:37:43.876Z,76.30
2022-08-24T12:40:15.716Z,76.60
2022-08-24T12:42:52.315Z,76.90
2022-08-24T12:45:21.852Z,77.30
2022-08-24T12:47:52.090Z,77.50
2022-08-24T12:50:25.274Z,77.70
2022-08-24T12:53:13.356Z,78.00
2022-08-24T12:55:57.077Z,78.10
2022-08-24T12:58:54.530Z,78.40
2022-08-24T13:01:25.655Z,78.50
2022-08-24T13:04:08.964Z,78.90
2022-08-24T13:06:40.726Z,79.40
2022-08-24T13:09:10.775Z,80.30
2022-08-24T13:11:39.592Z,80.90
2022-08-24T13:14:19.005Z,81.70
2022-08-24T13:16:53.215Z,82.30
2022-08-24T13:19:35.340Z,82.80
2022-08-24T13:22:18.690Z,83.50
2022-08-24T13:24:47.700Z,84.20
2022-08-24T13:27:49.968Z,84.90
2022-08-24T13:30:36.646Z,85.90
2022-08-24T13:33:10.479Z,86.90
2022-08-24T13:36:12.465Z,87.60
2022-08-24T13:38:48.849Z,88.30
2022-08-24T13:41:35.550Z,89.60
2022-08-24T13:44:09.466Z,90.30
2022-08-24T13:46:46.658Z,90.70
2022-08-24T13:49:22.948Z,91.10
2022-08-24T13:51:54.003Z,91.50
2022-08-24T13:54:26.246Z,92.00
2022-08-24T13:57:18.572Z,92.40
2022-08-24T13:59:54.864Z,92.70
2022-08-24T14:02:28.369Z,93.30
2022-08-24T14:05:03.008Z,93.60
2022-08-24T14:07:34.680Z,94.00
2022-08-24T14:10:08.516Z,94.40
2022-08-24T14:12:50.501Z,94.60
2022-08-24T14:15:24.234Z,94.80
2022-08-24T14:17:58.088Z,95.20
2022-08-24T14:20:43.320Z,95.50
2022-08-24T14:23:20.943Z,95.90
2022-08-24T14:25:51.827Z,96.30
2022-08-24T14:28:33.166Z,96.70
2022-08-24T14:31:14.962Z,97.00
2022-08-24T14:33:48.027Z,97.30
2022-08-24T14:36:20.522Z,97.50
2022-08-24T14:38:55.954Z,97.60
2022-08-24T14:41:43.529Z,97.80
2022-08-24T14:44:17.661Z,97.30
2022-08-24T14:46:50.226Z,97.20
2022-08-24T14:49:24.152Z,97.30
2022-08-24T14:52:05.181Z,97.60
2022-08-24T14:55:02.930Z,98.00
2022-08-24T14:57:41.692Z,98.20
2022-08-24T15:00:13.912Z,98.10
2022-08-24T15:03:09.234Z,98.00
2022-08-24T15:05:41.972Z,98.00
2022-08-24T15:08:16.313Z,98.20
2022-08-24T15:10:50.073Z,98.20
2022-08-24T15:13:28.375Z,98.30
2022-08-24T15:15:58.961Z,98.40
2022-08-24T15:18:34.830Z,98.30
2022-08-24T15:21:23.632Z,97.90
2022-08-24T15:24:02.030Z,97.60
2022-08-24T15:26:34.896Z,97.50
2022-08-24T15:29:16.649Z,97.50
2022-08-24T15:31:57.354Z,97.40
2022-08-24T15:34:36.839Z,97.10
2022-08-24T15:37:06.108Z,97.00
2022-08-24T15:39:37.096Z,96.80
2022-08-24T15:42:12.373Z,96.60
2022-08-24T15:44:42.108Z,96.30
2022-08-24T15:47:15.804Z,96.20
2022-08-24T15:50:03.898Z,96.40
2022-08-24T15:52:45.022Z,96.30
2022-08-24T15:55:36.007Z,96.40
2022-08-24T15:58:22.744Z,96.50
2022-08-24T16:01:09.328Z,96.60
2022-08-24T16:03:46.654Z,96.80
2022-08-24T16:06:21.017Z,96.70
2022-08-24T16:08:58.433Z,96.80
2022-08-24T16:11:34.856Z,97.00
2022-08-24T16:14:03.839Z,97.10
2022-08-24T16:16:38.100Z,97.40
2022-08-24T16:19:08.929Z,97.70
2022-08-24T16:21:39.115Z,98.00
2022-08-24T16:24:28.922Z,98.30
2022-08-24T16:27:00.981Z,98.50
2022-08-24T16:29:53.375Z,98.80
2022-08-24T16:32:32.018Z,99.20
2022-08-24T16:35:31.430Z,99.50
2022-08-24T16:38:00.105Z,99.70
2022-08-24T16:40:28.958Z,99.90
2022-08-24T16:42:59.656Z,99.90
2022-08-24T16:45:28.877Z,99.90
2022-08-24T16:47:58.833Z,99.90
2022-08-24T16:50:27.644Z,99.90
2022-08-24T16:52:56.387Z,99.90
2022-08-24T16:55:25.225Z,99.90
2022-08-24T16:57:53.782Z,99.90
2022-08-24T17:00:24.563Z,99.90
2022-08-24T17:02:53.191Z,99.90
2022-08-24T17:05:22.173Z,99.90
2022-08-24T17:07:52.027Z,99.90
2022-08-24T17:10:23.868Z,99.90
2022-08-24T17:12:52.539Z,99.90
2022-08-24T17:15:21.456Z,99.90
2022-08-24T17:17:56.987Z,99.90
2022-08-24T17:20:26.147Z,99.90
2022-08-24T17:22:54.714Z,99.90
2022-08-24T17:25:42.203Z,99.90
2022-08-24T17:28:11.774Z,99.90
2022-08-24T17:30:42.001Z,99.90
2022-08-24T17:33:30.647Z,99.90
2022-08-24T17:35:59.535Z,99.90
2022-08-24T17:38:28.113Z,99.90
2022-08-24T17:40:56.791Z,99.90
2022-08-24T17:43:25.748Z,99.90
2022-08-24T17:45:54.899Z,99.90
2022-08-24T17:48:28.959Z,99.90
2022-08-24T17:50:59.443Z,99.90
2022-08-24T17:53:47.619Z,99.90
2022-08-24T17:56:17.885Z,99.90
2022-08-24T17:59:04.418Z,99.90
2022-08-24T18:01:33.506Z,99.90
2022-08-24T18:04:02.075Z,99.90
2022-08-24T18:06:32.551Z,99.90
2022-08-24T18:09:03.446Z,99.90
2022-08-24T18:11:32.429Z,99.90
2022-08-24T18:14:01.796Z,99.90
2022-08-24T18:16:30.447Z,99.90
2022-08-24T18:19:00.042Z,99.90
2022-08-24T18:21:28.699Z,99.90
2022-08-24T18:24:02.107Z,99.90
2022-08-24T18:26:31.673Z,99.90
2022-08-24T18:29:07.187Z,99.90
2022-08-24T18:31:54.915Z,99.90
2022-08-24T18:34:24.427Z,99.90
2022-08-24T18:36:54.155Z,99.90
2022-08-24T18:39:24.727Z,99.90
2022-08-24T18:41:55.081Z,99.90
2022-08-24T18:44:29.576Z,99.90
2022-08-24T18:47:00.734Z,99.90
2022-08-24T18:49:29.969Z,99.90
2022-08-24T18:51:59.927Z,99.90
2022-08-24T18:54:36.782Z,99.90
2022-08-24T18:57:07.174Z,99.90
2022-08-24T18:59:40.921Z,99.90
2022-08-24T19:02:33.645Z,99.90
2022-08-24T19:05:06.807Z,99.90
2022-08-24T19:07:37.388Z,99.90
2022-08-24T19:10:12.010Z,99.90
2022-08-24T19:12:46.764Z,99.90
2022-08-24T19:15:32.618Z,99.90
2022-08-24T19:18:06.839Z,99.90
2022-08-24T19:20:36.169Z,99.90
2022-08-24T19:23:10.148Z,99.90
2022-08-24T19:25:47.153Z,99.90
2022-08-24T19:28:16.326Z,99.90
2022-08-24T19:30:47.096Z,99.90
2022-08-24T19:33:26.968Z,99.90
2022-08-24T19:36:14.827Z,99.90
2022-08-24T19:38:44.096Z,99.90
2022-08-24T19:41:16.779Z,99.90
2022-08-24T19:44:07.843Z,99.90
2022-08-24T19:46:36.950Z,99.90
2022-08-24T19:49:06.441Z,99.90
2022-08-24T19:51:55.669Z,99.90
2022-08-24T19:54:24.849Z,99.90
2022-08-24T19:56:55.541Z,99.90
2022-08-24T19:59:29.059Z,99.90
2022-08-24T20:01:58.174Z,99.90
2022-08-24T20:04:27.110Z,99.90
2022-08-24T20:06:56.452Z,99.90
2022-08-24T20:09:25.664Z,99.90
2022-08-24T20:11:56.367Z,99.90
2022-08-24T20:14:25.971Z,99.90
2022-08-24T20:16:54.969Z,99.90
2022-08-24T20:19:24.342Z,99.90
2022-08-24T20:21:53.277Z,99.90
2022-08-24T20:24:23.435Z,99.90
2022-08-24T20:26:52.741Z,99.90
2022-08-24T20:29:23.216Z,99.90
2022-08-24T20:31:56.124Z,99.90
2022-08-24T20:34:25.186Z,99.90
2022-08-24T20:36:54.426Z,99.90
2022-08-24T20:39:27.422Z,99.90
2022-08-24T20:41:57.476Z,99.90
2022-08-24T20:44:28.592Z,99.90
2022-08-24T20:46:57.862Z,99.90
2022-08-24T20:49:28.659Z,99.90
2022-08-24T20:51:58.390Z,99.90
2022-08-24T20:54:27.571Z,99.90
2022-08-24T20:56:56.451Z,99.90
2022-08-24T20:59:27.326Z,99.90
2022-08-24T21:01:56.779Z,99.90
2022-08-24T21:04:25.538Z,99.90
2022-08-24T21:06:58.287Z,99.90
2022-08-24T21:09:27.127Z,99.90
2022-08-24T21:11:56.249Z,99.90
2022-08-24T21:14:26.625Z,99.90
2022-08-24T21:16:57.532Z,99.90
2022-08-24T21:19:26.590Z,99.90
2022-08-24T21:21:55.612Z,99.90
2022-08-24T21:24:27.152Z,99.90
2022-08-24T21:26:56.634Z,99.90
2022-08-24T21:29:27.276Z,99.90
2022-08-24T21:32:13.379Z,99.90
2022-08-24T21:35:00.981Z,99.90
2022-08-24T21:37:29.970Z,99.90
2022-08-24T21:39:59.548Z,99.90
2022-08-24T21:42:28.649Z,99.90
2022-08-24T21:45:01.262Z,99.90
2022-08-24T21:47:49.954Z,99.90
2022-08-24T21:50:20.032Z,99.90
2022-08-24T21:52:54.986Z,99.90
2022-08-24T21:55:23.899Z,99.90
2022-08-24T21:57:53.060Z,99.90
2022-08-24T22:00:24.506Z,99.90
2022-08-24T22:02:53.635Z,99.90
2022-08-24T22:05:22.691Z,99.90
2022-08-24T22:07:51.606Z,99.90
2022-08-24T22:10:20.626Z,99.90
2022-08-24T22:12:49.963Z,99.90
2022-08-24T22:15:23.921Z,99.90
2022-08-24T22:17:53.175Z,99.90
2022-08-24T22:20:23.275Z,99.90
2022-08-24T22:22:52.926Z,99.90
2022-08-24T22:25:21.852Z,99.90
2022-08-24T22:27:50.859Z,99.90
2022-08-24T22:30:20.361Z,99.90
2022-08-24T22:32:51.028Z,99.90
2022-08-24T22:35:20.244Z,99.90
2022-08-24T22:37:49.076Z,99.90
2022-08-24T22:40:19.143Z,99.90
2022-08-24T22:42:48.267Z,99.90
2022-08-24T22:45:17.198Z,99.90
2022-08-24T22:47:46.115Z,99.90
2022-08-24T22:50:16.862Z,99.90
2022-08-24T22:52:45.969Z,99.90
2022-08-24T22:55:14.897Z,99.90
2022-08-24T22:57:43.889Z,99.90
2022-08-24T23:00:15.132Z,99.90
2022-08-24T23:02:46.069Z,99.90
2022-08-24T23:05:16.364Z,99.90
2022-08-24T23:07:45.351Z,99.90
2022-08-24T23:10:15.151Z,99.90
2022-08-24T23:12:44.115Z,99.90
2022-08-24T23:15:13.289Z,99.90
2022-08-24T23:17:42.974Z,99.90
2022-08-24T23:20:11.731Z,99.90
2022-08-24T23:22:42.557Z,99.90
2022-08-24T23:25:14.102Z,99.90
2022-08-24T23:27:44.480Z,99.90
2022-08-24T23:30:16.026Z,99.90
2022-08-24T23:32:44.682Z,99.90
2022-08-24T23:35:13.291Z,99.90
2022-08-24T23:37:43.367Z,99.90
2022-08-24T23:40:12.396Z,99.90
2022-08-24T23:42:41.018Z,99.90
2022-08-24T23:45:12.292Z,99.90
2022-08-24T23:47:41.555Z,99.90
2022-08-24T23:50:11.459Z,99.90
2022-08-24T23:52:40.947Z,99.90
2022-08-24T23:55:20.224Z,99.90
2022-08-24T23:57:51.504Z,99.90
